createdAt,value
2023-04-02T00:04:21.887Z,12.73
2023-04-02T00:09:37.547Z,12.87
2023-04-02T00:14:35.180Z,12.85
2023-04-02T00:19:37.425Z,12.51
2023-04-02T00:24:34.708Z,12.84
2023-04-02T00:29:31.551Z,12.90
2023-04-02T00:34:32.465Z,12.78
2023-04-02T00:39:38.557Z,12.90
2023-04-02T00:44:42.164Z,12.94
2023-04-02T00:49:40.313Z,13.07
2023-04-02T00:54:43.484Z,13.02
2023-04-02T00:59:48.776Z,13.16
2023-04-02T01:04:53.078Z,12.93
2023-04-02T01:10:10.795Z,13.19
2023-04-02T01:15:13.106Z,13.01
2023-04-02T01:20:41.989Z,13.31
2023-04-02T01:25:45.112Z,12.89
2023-04-02T01:30:45.942Z,13.25
2023-04-02T01:35:48.684Z,13.08
2023-04-02T01:40:51.183Z,13.35
2023-04-02T01:45:49.315Z,13.20
2023-04-02T01:50:50.786Z,13.26
2023-04-02T01:55:50.175Z,12.90
2023-04-02T02:00:53.069Z,12.84
2023-04-02T02:05:51.147Z,13.07
2023-04-02T02:10:49.343Z,13.21
2023-04-02T02:15:46.719Z,13.22
2023-04-02T02:20:44.603Z,13.23
2023-04-02T02:25:42.375Z,12.96
2023-04-02T02:30:43.461Z,13.28
2023-04-02T02:35:49.405Z,13.12
2023-04-02T02:40:50.481Z,12.93
2023-04-02T02:45:49.636Z,12.87
2023-04-02T02:50:47.778Z,12.85
2023-04-02T02:55:46.068Z,13.09
2023-04-02T03:00:48.650Z,13.03
2023-04-02T03:05:52.492Z,13.09
2023-04-02T03:10:56.278Z,12.93
2023-04-02T03:16:01.939Z,13.21
2023-04-02T03:21:07.368Z,13.20
2023-04-02T03:26:10.842Z,12.90
2023-04-02T03:31:12.502Z,13.15
2023-04-02T03:36:19.625Z,13.19
2023-04-02T03:41:21.240Z,13.21
2023-04-02T03:46:26.138Z,13.09
2023-04-02T03:51:30.464Z,13.28
2023-04-02T03:56:31.043Z,13.30
2023-04-02T04:01:35.139Z,13.32
2023-04-02T04:06:35.593Z,12.99
2023-04-02T04:11:37.973Z,13.00
2023-04-02T04:16:47.171Z,13.37
2023-04-02T04:21:46.830Z,13.40
2023-04-02T04:27:03.200Z,13.21
2023-04-02T04:32:17.845Z,13.10
2023-04-02T04:37:25.550Z,13.25
2023-04-02T04:42:29.194Z,12.75
2023-04-02T04:47:32.121Z,12.93
2023-04-02T04:52:36.617Z,12.82
2023-04-02T04:57:37.233Z,13.03
2023-04-02T05:02:47.451Z,12.81
2023-04-02T05:07:48.944Z,12.97
2023-04-02T05:12:51.466Z,13.06
2023-04-02T05:17:55.513Z,12.15
2023-04-02T05:22:57.936Z,13.12
2023-04-02T05:28:05.160Z,13.24
2023-04-02T05:33:09.383Z,13.32
2023-04-02T05:38:08.090Z,12.96
2023-04-02T05:43:10.434Z,12.95
2023-04-02T05:48:20.890Z,13.58
2023-04-02T05:53:33.515Z,13.72
2023-04-02T05:58:37.340Z,13.49
2023-04-02T06:04:02.374Z,13.57
2023-04-02T06:09:11.406Z,13.57
2023-04-02T06:14:12.423Z,13.36
2023-04-02T06:19:17.046Z,13.55
2023-04-02T06:24:18.988Z,13.30
2023-04-02T06:29:24.471Z,13.21
2023-04-02T06:34:35.680Z,13.75
2023-04-02T06:39:39.198Z,13.86
2023-04-02T06:44:38.413Z,13.58
2023-04-02T06:50:01.491Z,14.08
2023-04-02T06:55:28.910Z,13.87
2023-04-02T07:00:35.661Z,14.89
2023-04-02T07:05:34.008Z,15.37
2023-04-02T07:10:32.082Z,15.89
2023-04-02T07:15:29.048Z,16.18
2023-04-02T07:20:29.770Z,16.38
2023-04-02T07:25:29.841Z,16.38
2023-04-02T07:30:27.242Z,16.77
2023-04-02T07:35:24.158Z,17.49
2023-04-02T07:40:23.526Z,18.13
2023-04-02T07:45:20.422Z,18.58
2023-04-02T07:50:18.316Z,19.01
2023-04-02T07:55:16.350Z,19.23
2023-04-02T08:00:15.881Z,19.31
2023-04-02T08:05:12.832Z,18.92
2023-04-02T08:10:12.398Z,18.87
2023-04-02T08:15:13.884Z,18.91
2023-04-02T08:20:15.515Z,19.00
2023-04-02T08:25:21.768Z,19.32
2023-04-02T08:30:19.663Z,19.04
2023-04-02T08:35:17.352Z,19.01
2023-04-02T08:40:23.015Z,19.02
2023-04-02T08:45:25.590Z,18.74
2023-04-02T08:50:30.439Z,19.12
2023-04-02T08:55:35.023Z,19.17
2023-04-02T09:00:37.945Z,19.42
2023-04-02T09:05:38.892Z,19.67
2023-04-02T09:10:41.744Z,19.79
2023-04-02T09:15:41.632Z,19.55
2023-04-02T09:20:40.166Z,20.19
2023-04-02T09:25:48.496Z,20.03
2023-04-02T09:31:06.643Z,19.98
2023-04-02T09:36:04.956Z,20.50
2023-04-02T09:41:04.277Z,20.44
2023-04-02T09:46:04.939Z,20.87
2023-04-02T09:51:07.539Z,21.22
2023-04-02T09:56:15.399Z,21.20
2023-04-02T10:01:27.555Z,21.18
2023-04-02T10:06:25.583Z,21.16
2023-04-02T10:11:36.395Z,20.62
2023-04-02T10:16:47.158Z,20.91
2023-04-02T10:21:45.637Z,21.26
2023-04-02T10:26:52.888Z,21.11
2023-04-02T10:31:58.705Z,21.12
2023-04-02T10:36:59.904Z,21.30
2023-04-02T10:42:06.284Z,21.58
2023-04-02T10:47:23.102Z,21.80
2023-04-02T10:52:21.865Z,21.98
2023-04-02T10:57:27.114Z,21.79
2023-04-02T11:02:36.060Z,22.71
2023-04-02T11:07:47.735Z,22.93
2023-04-02T11:12:55.488Z,22.90
2023-04-02T11:17:52.664Z,23.27
2023-04-02T11:23:06.046Z,23.51
2023-04-02T11:28:22.495Z,23.66
2023-04-02T11:33:43.376Z,24.41
2023-04-02T11:38:52.597Z,24.62
2023-04-02T11:43:53.419Z,24.34
2023-04-02T11:48:50.447Z,24.42
2023-04-02T11:53:48.600Z,24.15
2023-04-02T11:59:02.715Z,23.88
2023-04-02T12:04:46.522Z,23.56
2023-04-02T12:09:53.051Z,23.22
2023-04-02T12:14:53.210Z,23.01
2023-04-02T12:19:52.231Z,22.44
2023-04-02T12:24:50.215Z,22.74
2023-04-02T12:29:47.033Z,22.49
2023-04-02T12:34:46.333Z,22.26
2023-04-02T12:39:52.964Z,21.69
2023-04-02T12:44:51.542Z,21.72
2023-04-02T12:49:50.615Z,21.49
2023-04-02T12:54:56.845Z,21.48
2023-04-02T12:59:54.965Z,21.63
2023-04-02T13:04:58.270Z,21.59
2023-04-02T13:09:56.940Z,21.51
2023-04-02T13:14:55.938Z,21.22
2023-04-02T13:19:53.988Z,21.19
2023-04-02T13:24:55.827Z,21.44
2023-04-02T13:29:53.425Z,21.07
2023-04-02T13:34:53.206Z,21.57
2023-04-02T13:39:53.709Z,21.51
2023-04-02T13:44:50.603Z,21.18
2023-04-02T13:49:48.115Z,21.40
2023-04-02T13:54:48.290Z,21.27
2023-04-02T13:59:49.915Z,21.13
2023-04-02T14:04:51.115Z,20.76
2023-04-02T14:10:05.715Z,20.45
2023-04-02T14:15:19.023Z,21.17
2023-04-02T14:20:32.152Z,21.07
2023-04-02T14:25:36.980Z,21.28
2023-04-02T14:30:45.028Z,20.97
2023-04-02T14:35:44.939Z,20.88
2023-04-02T14:40:48.943Z,20.91
2023-04-02T14:45:57.079Z,21.01
2023-04-02T14:51:03.242Z,20.74
2023-04-02T14:56:02.779Z,21.07
2023-04-02T15:01:03.556Z,21.07
2023-04-02T15:06:02.405Z,20.95
2023-04-02T15:11:06.587Z,20.73
2023-04-02T15:16:11.688Z,20.79
2023-04-02T15:21:34.253Z,20.34
2023-04-02T15:26:44.649Z,20.48
2023-04-02T15:31:48.963Z,20.10
2023-04-02T15:36:59.702Z,19.83
2023-04-02T15:42:10.543Z,19.71
2023-04-02T15:47:15.445Z,19.64
2023-04-02T15:52:20.895Z,19.03
2023-04-02T15:57:30.585Z,19.43
2023-04-02T16:02:53.033Z,19.27
2023-04-02T16:08:23.195Z,19.26
2023-04-02T16:13:28.368Z,19.22
2023-04-02T16:18:36.522Z,19.04
2023-04-02T16:23:35.937Z,18.69
2023-04-02T16:28:38.512Z,18.61
2023-04-02T16:33:53.710Z,18.23
2023-04-02T16:38:58.448Z,17.81
2023-04-02T16:44:05.387Z,17.85
2023-04-02T16:49:14.975Z,17.67
2023-04-02T16:54:19.212Z,17.25
2023-04-02T16:59:22.889Z,17.02
2023-04-02T17:04:48.989Z,17.15
2023-04-02T17:09:50.457Z,16.54
2023-04-02T17:14:51.982Z,16.57
2023-04-02T17:19:57.127Z,16.54
2023-04-02T17:24:57.525Z,16.50
2023-04-02T17:30:01.480Z,16.10
2023-04-02T17:35:12.706Z,15.98
2023-04-02T17:40:22.324Z,16.02
2023-04-02T17:45:26.587Z,15.65
2023-04-02T17:51:02.207Z,15.78
2023-04-02T17:56:16.363Z,15.64
2023-04-02T18:01:20.359Z,15.54
2023-04-02T18:06:21.959Z,15.29
2023-04-02T18:11:29.618Z,14.82
2023-04-02T18:16:40.015Z,14.70
2023-04-02T18:21:44.315Z,15.17
2023-04-02T18:26:51.526Z,15.07
2023-04-02T18:31:53.130Z,14.94
2023-04-02T18:37:03.454Z,14.80
2023-04-02T18:42:08.838Z,14.84
2023-04-02T18:47:11.359Z,14.76
2023-04-02T18:52:12.714Z,14.32
2023-04-02T18:57:13.222Z,14.59
2023-04-02T19:02:30.673Z,14.30
2023-04-02T19:07:30.543Z,14.04
2023-04-02T19:12:31.694Z,13.99
2023-04-02T19:17:35.582Z,14.31
2023-04-02T19:22:44.273Z,14.18
2023-04-02T19:27:58.839Z,14.52
2023-04-02T19:33:06.994Z,14.37
2023-04-02T19:38:16.492Z,14.16
2023-04-02T19:43:14.203Z,14.33
2023-04-02T19:48:15.450Z,14.47
2023-04-02T19:53:12.463Z,14.53
2023-04-02T19:58:19.945Z,14.57
2023-04-02T20:03:17.059Z,14.58
2023-04-02T20:08:13.989Z,14.59
2023-04-02T20:13:13.688Z,14.43
2023-04-02T20:18:14.229Z,14.22
2023-04-02T20:23:11.029Z,13.93
2023-04-02T20:28:07.927Z,14.34
2023-04-02T20:33:05.109Z,14.47
2023-04-02T20:38:05.718Z,14.43
2023-04-02T20:43:04.259Z,14.13
2023-04-02T20:48:01.834Z,14.42
2023-04-02T20:53:00.378Z,14.45
2023-04-02T20:57:57.898Z,14.48
2023-04-02T21:02:54.927Z,14.21
2023-04-02T21:07:52.000Z,14.37
2023-04-02T21:12:48.836Z,14.43
2023-04-02T21:17:46.351Z,13.82
2023-04-02T21:22:43.360Z,14.25
2023-04-02T21:27:40.194Z,14.21
2023-04-02T21:32:37.025Z,14.14
2023-04-02T21:37:35.138Z,14.05
2023-04-02T21:42:32.196Z,14.02
2023-04-02T21:47:29.021Z,14.11
2023-04-02T21:52:25.896Z,13.94
2023-04-02T21:57:23.302Z,13.89
2023-04-02T22:02:20.270Z,13.97
2023-04-02T22:07:17.146Z,13.91
2023-04-02T22:12:14.060Z,13.73
2023-04-02T22:17:11.800Z,13.79
2023-04-02T22:22:08.704Z,13.40
2023-04-02T22:27:05.406Z,13.64
2023-04-02T22:32:02.635Z,13.60
2023-04-02T22:37:00.100Z,13.57
2023-04-02T22:41:57.034Z,13.50
2023-04-02T22:46:53.852Z,13.42
2023-04-02T22:51:51.052Z,13.30
2023-04-02T22:56:48.422Z,13.46
2023-04-02T23:01:45.381Z,13.43
2023-04-02T23:06:42.288Z,13.34
2023-04-02T23:11:39.012Z,13.41
2023-04-02T23:16:36.425Z,12.98
2023-04-02T23:21:33.192Z,13.21
2023-04-02T23:26:31.028Z,13.28
2023-04-02T23:31:28.246Z,13.22
2023-04-02T23:36:27.925Z,13.18
2023-04-02T23:41:26.076Z,12.92
2023-04-02T23:46:23.522Z,12.73
2023-04-02T23:51:21.042Z,13.12
2023-04-02T23:56:20.173Z,13.03
